createdAt,value
2022-08-07T00:10:26.713Z,25.36
2022-08-07T00:38:42.786Z,25.36
2022-08-07T01:07:32.195Z,25.34
2022-08-07T01:36:17.293Z,25.31
2022-08-07T02:05:43.559Z,25.3
2022-08-07T02:34:11.022Z,25.26
2022-08-07T03:02:34.933Z,25.23
2022-08-07T03:31:42.229Z,25.15
2022-08-07T04:00:03.841Z,25.07
2022-08-07T04:28:28.642Z,24.89
2022-08-07T04:58:08.263Z,23.7
2022-08-07T05:26:11.475Z,23.55
2022-08-07T05:54:44.727Z,23.28
2022-08-07T06:23:25.293Z,22.4
2022-08-07T06:51:34.224Z,23.56
2022-08-07T07:20:12.182Z,24.11
2022-08-07T07:48:48.840Z,24.33
2022-08-07T08:17:56.947Z,24.48
2022-08-07T08:46:00.943Z,24.57
2022-08-07T09:14:17.963Z,24.67
2022-08-07T09:42:58.773Z,24.76
2022-08-07T10:12:00.877Z,24.85
2022-08-07T10:40:09.203Z,24.92
2022-08-07T11:08:30.760Z,24.86
2022-08-07T11:37:12.204Z,25.05
2022-08-07T12:05:49.856Z,25.1
2022-08-07T12:34:13.937Z,25.14
2022-08-07T13:02:49.877Z,25.18
2022-08-07T13:31:18.655Z,25.22
2022-08-07T14:00:26.489Z,25.27
2022-08-07T14:28:57.195Z,25.3
2022-08-07T14:57:20.100Z,25.37
2022-08-07T15:25:48.888Z,25.43
2022-08-07T15:54:27.400Z,25.49
2022-08-07T16:23:25.298Z,25.53
2022-08-07T16:51:54.760Z,25.57
2022-08-07T17:20:21.843Z,25.59
2022-08-07T17:48:44.497Z,25.61
2022-08-07T18:18:32.959Z,25.63
2022-08-07T18:46:20.377Z,25.59
2022-08-07T19:14:26.893Z,25.49
2022-08-07T19:43:08.756Z,25.36
2022-08-07T20:12:01.232Z,25.36
2022-08-07T20:40:31.715Z,25.32
2022-08-07T21:08:46.978Z,25.31
2022-08-07T21:37:19.395Z,25.27
2022-08-07T22:05:49.843Z,25.23
2022-08-07T22:34:53.842Z,25.21
2022-08-07T23:03:19.765Z,25.21
2022-08-07T23:32:49.808Z,25.16
